Time,TemperatureF,DewpointF,PressureIn,WindDirection,WindDirectionDegrees,WindSpeedMPH,WindSpeedGustMPH,Humidity,HourlyPrecipIn,Conditions,Clouds,dailyrainin,SoftwareType,DateUTC
2013-01-31 07:20:00,52.6,49.4,30.05,West,271,0.0,0.0,89,0.00,,,0.04,Wunderground v.1.15,2013-01-31 12:20:00,
2013-01-31 07:25:00,52.5,49.4,30.06,West,272,0.0,0.0,89,0.00,,,0.04,Wunderground v.1.15,2013-01-31 12:25:00,
2013-01-31 07:30:00,52.4,49.3,30.06,WNW,302,0.0,0.0,89,0.00,,,0.04,Wunderground v.1.15,2013-01-31 12:30:00,
2013-01-31 07:35:00,52.4,49.3,30.06,West,279,0.0,0.0,89,0.00,,,0.04,Wunderground v.1.15,2013-01-31 12:35:00,
2013-01-31 07:40:00,52.3,49.2,30.06,West,269,0.0,0.0,89,0.00,,,0.04,Wunderground v.1.15,2013-01-31 12:40:00,
2013-01-31 07:45:00,52.2,48.8,30.06,WNW,285,0.0,0.0,88,0.00,,,0.04,Wunderground v.1.15,2013-01-31 12:45:00,
2013-01-31 07:50:00,52.1,48.7,30.06,West,274,0.0,0.0,88,0.00,,,0.04,Wunderground v.1.15,2013-01-31 12:50:00,
2013-01-31 07:55:00,51.9,48.2,30.06,WNW,287,0.0,0.0,87,0.00,,,0.04,Wunderground v.1.15,2013-01-31 12:55:00,
2013-01-31 08:00:00,51.9,47.5,30.07,WNW,302,0.0,0.0,85,0.00,,,0.04,Wunderground v.1.15,2013-01-31 13:00:00,
2013-01-31 08:05:00,52.1,47.7,30.07,WNW,293,0.0,0.0,85,0.00,,,0.04,Wunderground v.1.15,2013-01-31 13:05:00,
2013-01-31 08:15:00,52.5,47.5,30.08,NW,308,0.0,2.0,83,0.00,,,0.04,Wunderground v.1.15,2013-01-31 13:15:00,
2013-01-31 08:20:00,52.7,47.7,30.08,WSW,254,0.0,2.0,83,0.00,,,0.04,Wunderground v.1.15,2013-01-31 13:20:00,
2013-01-31 08:25:00,52.8,47.5,30.08,West,280,1.0,2.0,82,0.00,,,0.04,Wunderground v.1.15,2013-01-31 13:25:00,
2013-01-31 08:30:00,52.8,46.8,30.09,West,279,1.0,1.0,80,0.00,,,0.04,Wunderground v.1.15,2013-01-31 13:30:00,
2013-01-31 08:40:00,52.9,46.6,30.09,WNW,284,1.0,1.0,79,0.00,,,0.04,Wunderground v.1.15,2013-01-31 13:40:00,
2013-01-31 08:45:00,53.1,46.8,30.09,WNW,292,1.0,2.0,79,0.00,,,0.04,Wunderground v.1.15,2013-01-31 13:45:00,
2013-01-31 08:50:00,53.2,46.9,30.09,West,272,1.0,4.0,79,0.00,,,0.04,Wunderground v.1.15,2013-01-31 13:50:00,
2013-01-31 08:55:00,53.1,46.8,30.09,WNW,283,1.0,4.0,79,0.00,,,0.04,Wunderground v.1.15,2013-01-31 13:55:00,
2013-01-31 09:00:00,53.4,47.0,30.10,West,277,1.0,2.0,79,0.00,,,0.04,Wunderground v.1.15,2013-01-31 14:00:00,
2013-01-31 09:05:00,53.6,47.2,30.10,WNW,285,0.0,2.0,79,0.00,,,0.04,Wunderground v.1.15,2013-01-31 14:05:00,
2013-01-31 09:15:00,53.8,46.8,30.10,West,279,1.0,2.0,77,0.00,,,0.04,Wunderground v.1.15,2013-01-31 14:15:00,
2013-01-31 09:20:00,54.4,47.3,30.10,WNW,288,0.0,2.0,77,0.00,,,0.04,Wunderground v.1.15,2013-01-31 14:20:00,
2013-01-31 09:25:00,54.7,46.9,30.10,WNW,290,0.0,2.0,75,0.00,,,0.04,Wunderground v.1.15,2013-01-31 14:25:00,
2013-01-31 09:30:00,54.3,45.8,30.11,NW,306,0.0,2.0,73,0.00,,,0.04,Wunderground v.1.15,2013-01-31 14:30:00,
2013-01-31 09:40:00,54.9,46.0,30.11,West,279,1.0,1.0,72,0.00,,,0.04,Wunderground v.1.15,2013-01-31 14:40:00,
2013-01-31 09:50:00,55.3,45.7,30.11,NW,313,1.0,2.0,70,0.00,,,0.04,Wunderground v.1.15,2013-01-31 14:50:00,
2013-01-31 09:55:00,55.4,45.0,30.12,North,5,1.0,2.0,68,0.00,,,0.04,Wunderground v.1.15,2013-01-31 14:55:00,
2013-01-31 10:00:00,55.7,45.7,30.12,NNW,339,1.0,1.0,69,0.00,,,0.04,Wunderground v.1.15,2013-01-31 15:00:00,
2013-01-31 10:05:00,55.6,45.2,30.13,North,355,2.0,2.0,68,0.00,,,0.04,Wunderground v.1.15,2013-01-31 15:05:00,
2013-01-31 10:10:00,55.5,44.3,30.13,NNW,348,2.0,2.0,66,0.00,,,0.04,Wunderground v.1.15,2013-01-31 15:10:00,
2013-01-31 10:15:00,55.5,44.7,30.13,WNW,296,1.0,2.0,67,0.00,,,0.04,Wunderground v.1.15,2013-01-31 15:15:00,
2013-01-31 10:20:00,55.5,44.7,30.13,West,261,1.0,1.0,67,0.00,,,0.04,Wunderground v.1.15,2013-01-31 15:20:00,
2013-01-31 10:25:00,56.0,44.4,30.13,NW,312,1.0,2.0,65,0.00,,,0.04,Wunderground v.1.15,2013-01-31 15:25:00,
2013-01-31 10:30:00,55.7,44.9,30.13,West,262,1.0,3.0,67,0.00,,,0.04,Wunderground v.1.15,2013-01-31 15:30:00,
2013-01-31 10:35:00,56.2,45.0,30.13,NW,308,1.0,3.0,66,0.00,,,0.04,Wunderground v.1.15,2013-01-31 15:35:00,
2013-01-31 10:40:00,56.6,45.4,30.13,West,273,1.0,1.0,66,0.00,,,0.04,Wunderground v.1.15,2013-01-31 15:40:00,
2013-01-31 10:50:00,57.1,45.0,30.13,NW,312,0.0,2.0,64,0.00,,,0.04,Wunderground v.1.15,2013-01-31 15:50:00,
2013-01-31 11:00:00,57.3,44.8,30.13,WNW,303,1.0,1.0,63,0.00,,,0.04,Wunderground v.1.15,2013-01-31 16:00:00,
2013-01-31 11:05:00,56.6,43.3,30.13,West,276,2.0,3.0,61,0.00,,,0.04,Wunderground v.1.15,2013-01-31 16:05:00,
2013-01-31 11:10:00,57.0,44.5,30.13,WNW,284,2.0,2.0,63,0.00,,,0.04,Wunderground v.1.15,2013-01-31 16:10:00,
2013-01-31 11:15:00,56.8,43.5,30.13,SW,236,1.0,2.0,61,0.00,,,0.04,Wunderground v.1.15,2013-01-31 16:15:00,
2013-01-31 11:20:00,57.6,44.2,30.13,West,277,1.0,1.0,61,0.00,,,0.04,Wunderground v.1.15,2013-01-31 16:20:00,
2013-01-31 11:25:00,57.7,43.0,30.13,West,279,1.0,2.0,58,0.00,,,0.04,Wunderground v.1.15,2013-01-31 16:25:00,
2013-01-31 11:30:00,57.9,43.7,30.13,West,280,1.0,1.0,59,0.00,,,0.04,Wunderground v.1.15,2013-01-31 16:30:00,
2013-01-31 11:35:00,58.2,44.8,30.13,West,262,1.0,2.0,61,0.00,,,0.04,Wunderground v.1.15,2013-01-31 16:35:00,
2013-01-31 11:40:00,57.9,43.7,30.13,West,260,2.0,3.0,59,0.00,,,0.04,Wunderground v.1.15,2013-01-31 16:40:00,
2013-01-31 11:45:00,58.5,44.2,30.13,West,276,2.0,3.0,59,0.00,,,0.04,Wunderground v.1.15,2013-01-31 16:45:00,
2013-01-31 11:50:00,58.7,43.5,30.13,WSW,257,1.0,1.0,57,0.00,,,0.04,Wunderground v.1.15,2013-01-31 16:50:00,
2013-01-31 12:00:00,58.8,43.6,30.12,SW,225,2.0,2.0,57,0.00,,,0.04,Wunderground v.1.15,2013-01-31 17:00:00,
2013-01-31 12:10:00,58.4,43.7,30.12,North,355,2.0,2.0,58,0.00,,,0.04,Wunderground v.1.15,2013-01-31 17:10:00,
2013-01-31 12:15:00,59.2,44.4,30.12,North,9,1.0,2.0,58,0.00,,,0.04,Wunderground v.1.15,2013-01-31 17:15:00,
2013-01-31 12:20:00,59.7,44.0,30.12,WSW,254,1.0,2.0,56,0.00,,,0.04,Wunderground v.1.15,2013-01-31 17:20:00,
2013-01-31 12:25:00,58.8,42.7,30.12,West,273,2.0,2.0,55,0.00,,,0.04,Wunderground v.1.15,2013-01-31 17:25:00,
2013-01-31 12:30:00,59.2,42.6,30.12,West,265,2.0,4.0,54,0.00,,,0.04,Wunderground v.1.15,2013-01-31 17:30:00,
2013-01-31 12:35:00,59.5,42.3,30.12,West,279,1.0,4.0,53,0.00,,,0.04,Wunderground v.1.15,2013-01-31 17:35:00,
2013-01-31 12:40:00,59.6,43.4,30.12,WNW,285,2.0,4.0,55,0.00,,,0.04,Wunderground v.1.15,2013-01-31 17:40:00,
2013-01-31 12:45:00,59.1,40.5,30.12,West,261,2.0,10.0,50,0.00,,,0.04,Wunderground v.1.15,2013-01-31 17:45:00,
2013-01-31 12:50:00,59.2,40.0,30.12,WNW,294,4.0,4.0,49,0.00,,,0.04,Wunderground v.1.15,2013-01-31 17:50:00,
2013-01-31 12:55:00,59.3,38.5,30.12,WNW,299,4.0,4.0,46,0.00,,,0.04,Wunderground v.1.15,2013-01-31 17:55:00,
2013-01-31 13:00:00,60.4,40.1,30.12,WNW,284,2.0,2.0,47,0.00,,,0.04,Wunderground v.1.15,2013-01-31 18:00:00,
2013-01-31 13:10:00,60.4,38.4,30.12,WNW,298,2.0,2.0,44,0.00,,,0.04,Wunderground v.1.15,2013-01-31 18:10:00,
2013-01-31 13:15:00,60.7,37.5,30.11,West,269,1.0,2.0,42,0.00,,,0.04,Wunderground v.1.15,2013-01-31 18:15:00,
2013-01-31 13:20:00,60.3,38.3,30.11,SW,234,1.0,4.0,44,0.00,,,0.04,Wunderground v.1.15,2013-01-31 18:20:00,
2013-01-31 13:25:00,60.1,38.7,30.10,WNW,290,2.0,4.0,45,0.00,,,0.04,Wunderground v.1.15,2013-01-31 18:25:00,
2013-01-31 13:35:00,60.4,37.8,30.11,WSW,246,1.0,2.0,43,0.00,,,0.04,Wunderground v.1.15,2013-01-31 18:35:00,
2013-01-31 13:40:00,60.8,36.9,30.11,West,270,1.0,1.0,41,0.00,,,0.04,Wunderground v.1.15,2013-01-31 18:40:00,
2013-01-31 13:45:00,60.8,35.7,30.10,WSW,250,1.0,3.0,39,0.00,,,0.04,Wunderground v.1.15,2013-01-31 18:45:00,
2013-01-31 13:50:00,60.5,37.3,30.10,West,265,1.0,1.0,42,0.00,,,0.04,Wunderground v.1.15,2013-01-31 18:50:00,
2013-01-31 13:55:00,60.2,35.1,30.10,West,271,1.0,2.0,39,0.00,,,0.04,Wunderground v.1.15,2013-01-31 18:55:00,
2013-01-31 14:00:00,61.7,37.7,30.10,NW,306,1.0,2.0,41,0.00,,,0.04,Wunderground v.1.15,2013-01-31 19:00:00,
2013-01-31 14:05:00,61.0,35.2,30.11,SW,233,1.0,3.0,38,0.00,,,0.04,Wunderground v.1.15,2013-01-31 19:05:00,
2013-01-31 14:10:00,60.9,33.7,30.11,West,279,2.0,2.0,36,0.00,,,0.04,Wunderground v.1.15,2013-01-31 19:10:00,
2013-01-31 14:15:00,61.8,35.2,30.11,NNW,333,1.0,2.0,37,0.00,,,0.04,Wunderground v.1.15,2013-01-31 19:15:00,
2013-01-31 14:20:00,61.8,35.9,30.11,NNW,334,1.0,1.0,38,0.00,,,0.04,Wunderground v.1.15,2013-01-31 19:20:00,
2013-01-31 14:25:00,61.9,36.0,30.11,West,279,1.0,2.0,38,0.00,,,0.04,Wunderground v.1.15,2013-01-31 19:25:00,
2013-01-31 14:30:00,62.4,34.4,30.11,West,273,1.0,1.0,35,0.00,,,0.04,Wunderground v.1.15,2013-01-31 19:30:00,
2013-01-31 14:35:00,61.6,32.9,30.11,SW,217,2.0,2.0,34,0.00,,,0.04,Wunderground v.1.15,2013-01-31 19:35:00,
2013-01-31 14:45:00,62.1,33.4,30.10,WNW,303,1.0,2.0,34,0.00,,,0.04,Wunderground v.1.15,2013-01-31 19:45:00,
2013-01-31 14:50:00,63.2,34.3,30.10,SW,226,1.0,3.0,34,0.00,,,0.04,Wunderground v.1.15,2013-01-31 19:50:00,
2013-01-31 14:55:00,62.4,32.9,30.10,North,355,1.0,3.0,33,0.00,,,0.04,Wunderground v.1.15,2013-01-31 19:55:00,
2013-01-31 15:00:00,62.4,32.9,30.11,West,271,1.0,2.0,33,0.00,,,0.04,Wunderground v.1.15,2013-01-31 20:00:00,
2013-01-31 15:05:00,62.6,33.8,30.11,West,272,1.0,2.0,34,0.00,,,0.04,Wunderground v.1.15,2013-01-31 20:05:00,
2013-01-31 15:10:00,62.6,33.1,30.11,NW,326,1.0,1.0,33,0.00,,,0.04,Wunderground v.1.15,2013-01-31 20:10:00,
2013-01-31 15:15:00,62.6,33.1,30.10,North,360,1.0,2.0,33,0.00,,,0.04,Wunderground v.1.15,2013-01-31 20:15:00,
2013-01-31 15:20:00,63.0,32.7,30.11,WNW,286,1.0,2.0,32,0.00,,,0.04,Wunderground v.1.15,2013-01-31 20:20:00,
2013-01-31 15:25:00,62.9,33.3,30.11,NNW,340,0.0,2.0,33,0.00,,,0.04,Wunderground v.1.15,2013-01-31 20:25:00,
2013-01-31 15:30:00,62.3,32.0,30.11,West,276,1.0,2.0,32,0.00,,,0.04,Wunderground v.1.15,2013-01-31 20:30:00,
2013-01-31 15:35:00,62.2,30.4,30.11,South,181,1.0,2.0,30,0.00,,,0.04,Wunderground v.1.15,2013-01-31 20:35:00,
2013-01-31 15:40:00,62.1,30.3,30.11,West,277,2.0,3.0,30,0.00,,,0.04,Wunderground v.1.15,2013-01-31 20:40:00,
2013-01-31 15:50:00,61.9,29.3,30.11,SW,236,2.0,2.0,29,0.00,,,0.04,Wunderground v.1.15,2013-01-31 20:50:00,
2013-01-31 15:55:00,62.1,29.4,30.11,WSW,239,1.0,2.0,29,0.00,,,0.04,Wunderground v.1.15,2013-01-31 20:55:00,
2013-01-31 16:00:00,61.7,28.2,30.11,West,271,2.0,5.0,28,0.00,,,0.04,Wunderground v.1.15,2013-01-31 21:00:00,
2013-01-31 16:05:00,61.7,29.9,30.11,WSW,252,2.0,5.0,30,0.00,,,0.04,Wunderground v.1.15,2013-01-31 21:05:00,
2013-01-31 16:10:00,62.2,31.2,30.11,WSW,246,1.0,1.0,31,0.00,,,0.04,Wunderground v.1.15,2013-01-31 21:10:00,
2013-01-31 16:15:00,62.0,28.5,30.11,West,275,1.0,3.0,28,0.00,,,0.04,Wunderground v.1.15,2013-01-31 21:15:00,
2013-01-31 16:20:00,61.6,27.3,30.11,WNW,288,1.0,1.0,27,0.00,,,0.04,Wunderground v.1.15,2013-01-31 21:20:00,
2013-01-31 16:30:00,61.3,28.7,30.11,WSW,250,1.0,1.0,29,0.00,,,0.04,Wunderground v.1.15,2013-01-31 21:30:00,
2013-01-31 16:35:00,61.2,27.8,30.12,NW,309,1.0,2.0,28,0.00,,,0.04,Wunderground v.1.15,2013-01-31 21:35:00,
2013-01-31 16:40:00,60.9,25.7,30.12,West,279,1.0,1.0,26,0.00,,,0.04,Wunderground v.1.15,2013-01-31 21:40:00,
2013-01-31 16:45:00,60.8,25.7,30.12,WSW,253,1.0,2.0,26,0.00,,,0.04,Wunderground v.1.15,2013-01-31 21:45:00,
2013-01-31 16:55:00,60.3,27.0,30.12,WSW,246,0.0,2.0,28,0.00,,,0.04,Wunderground v.1.15,2013-01-31 21:55:00,
2013-01-31 17:00:00,60.3,27.0,30.11,West,267,0.0,2.0,28,0.00,,,0.04,Wunderground v.1.15,2013-01-31 22:00:00,
2013-01-31 17:05:00,60.1,28.5,30.11,West,264,0.0,2.0,30,0.00,,,0.04,Wunderground v.1.15,2013-01-31 22:05:00,
2013-01-31 17:15:00,59.7,28.2,30.12,WNW,293,0.0,2.0,30,0.00,,,0.04,Wunderground v.1.15,2013-01-31 22:15:00,
2013-01-31 17:20:00,59.5,28.0,30.12,West,278,0.0,2.0,30,0.00,,,0.04,Wunderground v.1.15,2013-01-31 22:20:00,
2013-01-31 17:25:00,59.3,28.6,30.12,West,279,0.0,3.0,31,0.00,,,0.04,Wunderground v.1.15,2013-01-31 22:25:00,
2013-01-31 17:30:00,58.8,29.0,30.12,West,273,0.0,2.0,32,0.00,,,0.04,Wunderground v.1.15,2013-01-31 22:30:00,
2013-01-31 17:40:00,58.7,28.1,30.12,West,277,0.0,2.0,31,0.00,,,0.04,Wunderground v.1.15,2013-01-31 22:40:00,
2013-01-31 17:45:00,58.6,28.8,30.12,West,279,0.0,2.0,32,0.00,,,0.04,Wunderground v.1.15,2013-01-31 22:45:00,
2013-01-31 17:50:00,58.4,28.6,30.12,West,279,0.0,2.0,32,0.00,,,0.04,Wunderground v.1.15,2013-01-31 22:50:00,
2013-01-31 17:55:00,58.1,29.1,30.12,West,279,0.0,2.0,33,0.00,,,0.04,Wunderground v.1.15,2013-01-31 22:55:00,
2013-01-31 18:00:00,57.7,29.5,30.13,West,279,0.0,2.0,34,0.00,,,0.04,Wunderground v.1.15,2013-01-31 23:00:00,
2013-01-31 18:10:00,57.0,30.3,30.13,West,279,0.0,2.0,36,0.00,,,0.04,Wunderground v.1.15,2013-01-31 23:10:00,
2013-01-31 18:15:00,56.6,29.2,30.13,West,279,0.0,2.0,35,0.00,,,0.04,Wunderground v.1.15,2013-01-31 23:15:00,
2013-01-31 18:20:00,56.1,30.2,30.13,West,279,0.0,2.0,37,0.00,,,0.04,Wunderground v.1.15,2013-01-31 23:20:00,
2013-01-31 18:25:00,55.6,29.7,30.13,West,279,0.0,2.0,37,0.00,,,0.04,Wunderground v.1.15,2013-01-31 23:25:00,
2013-01-31 18:30:00,55.0,29.8,30.13,West,279,0.0,2.0,38,0.00,,,0.04,Wunderground v.1.15,2013-01-31 23:30:00,
2013-01-31 18:35:00,54.6,30.1,30.13,West,279,0.0,2.0,39,0.00,,,0.04,Wunderground v.1.15,2013-01-31 23:35:00,
2013-01-31 18:40:00,54.3,31.1,30.14,West,279,0.0,2.0,41,0.00,,,0.04,Wunderground v.1.15,2013-01-31 23:40:00,
2013-01-31 18:50:00,53.6,31.6,30.14,West,279,0.0,2.0,43,0.00,,,0.04,Wunderground v.1.15,2013-01-31 23:50:00,
2013-01-31 18:55:00,53.1,32.3,30.14,West,279,0.0,2.0,45,0.00,,,0.04,Wunderground v.1.15,2013-01-31 23:55:00,
2013-01-31 19:00:00,52.6,31.8,30.14,West,279,0.0,2.0,45,0.00,,,0.04,Wunderground v.1.15,2013-02-01 00:00:00,
2013-01-31 19:05:00,52.1,31.9,30.15,West,279,0.0,2.0,46,0.00,,,0.04,Wunderground v.1.15,2013-02-01 00:05:00,
2013-01-31 19:10:00,51.8,32.2,30.15,West,279,0.0,2.0,47,0.00,,,0.04,Wunderground v.1.15,2013-02-01 00:10:00,
2013-01-31 19:20:00,50.7,30.7,30.16,West,279,0.0,2.0,46,0.00,,,0.04,Wunderground v.1.15,2013-02-01 00:20:00,
2013-01-31 19:25:00,50.3,32.4,30.16,West,279,0.0,2.0,50,0.00,,,0.04,Wunderground v.1.15,2013-02-01 00:25:00,
2013-01-31 20:45:00,47.8,37.7,30.19,WSW,251,0.0,2.0,68,0.00,,,0.04,Wunderground v.1.15,2013-02-01 01:45:00,
2013-01-31 20:50:00,47.6,37.2,30.19,WSW,251,0.0,2.0,67,0.00,,,0.04,Wunderground v.1.15,2013-02-01 01:50:00,
2013-01-31 20:55:00,47.2,36.8,30.19,WSW,251,0.0,2.0,67,0.00,,,0.04,Wunderground v.1.15,2013-02-01 01:55:00,
2013-01-31 21:05:00,46.6,37.0,30.19,WSW,251,0.0,2.0,69,0.00,,,0.04,Wunderground v.1.15,2013-02-01 02:05:00,
2013-01-31 21:10:00,46.1,36.5,30.20,WSW,251,0.0,2.0,69,0.00,,,0.04,Wunderground v.1.15,2013-02-01 02:10:00,
2013-01-31 21:20:00,45.6,36.4,30.20,WSW,251,0.0,2.0,70,0.00,,,0.04,Wunderground v.1.15,2013-02-01 02:20:00,
2013-01-31 21:25:00,45.2,36.4,30.20,WSW,251,0.0,2.0,71,0.00,,,0.04,Wunderground v.1.15,2013-02-01 02:25:00,
2013-01-31 21:30:00,45.0,36.5,30.20,WSW,251,0.0,2.0,72,0.00,,,0.04,Wunderground v.1.15,2013-02-01 02:30:00,
2013-01-31 21:35:00,44.7,36.6,30.20,WSW,251,0.0,2.0,73,0.00,,,0.04,Wunderground v.1.15,2013-02-01 02:35:00,
2013-01-31 21:40:00,44.4,36.3,30.20,WSW,251,0.0,2.0,73,0.00,,,0.04,Wunderground v.1.15,2013-02-01 02:40:00,
2013-01-31 21:45:00,44.2,36.1,30.21,WSW,251,0.0,2.0,73,0.00,,,0.04,Wunderground v.1.15,2013-02-01 02:45:00,
2013-01-31 21:50:00,43.9,35.8,30.21,WSW,251,0.0,2.0,73,0.00,,,0.04,Wunderground v.1.15,2013-02-01 02:50:00,
2013-01-31 21:55:00,43.6,35.5,30.20,WSW,251,0.0,2.0,73,0.00,,,0.04,Wunderground v.1.15,2013-02-01 02:55:00,
2013-01-31 22:00:00,43.4,36.3,30.20,WSW,251,0.0,2.0,76,0.00,,,0.04,Wunderground v.1.15,2013-02-01 03:00:00,
2013-01-31 22:05:00,43.3,36.6,30.21,WSW,251,0.0,2.0,77,0.00,,,0.04,Wunderground v.1.15,2013-02-01 03:05:00,
2013-01-31 22:15:00,42.8,36.4,30.21,WSW,251,0.0,2.0,78,0.00,,,0.04,Wunderground v.1.15,2013-02-01 03:15:00,
2013-01-31 22:20:00,42.5,36.4,30.21,WSW,251,0.0,2.0,79,0.00,,,0.04,Wunderground v.1.15,2013-02-01 03:20:00,
2013-01-31 22:25:00,42.3,36.6,30.21,WSW,251,0.0,2.0,80,0.00,,,0.04,Wunderground v.1.15,2013-02-01 03:25:00,
2013-01-31 22:35:00,41.9,36.8,30.21,WSW,251,0.0,2.0,82,0.00,,,0.04,Wunderground v.1.15,2013-02-01 03:35:00,
2013-01-31 22:40:00,41.8,37.0,30.22,WSW,251,0.0,2.0,83,0.00,,,0.04,Wunderground v.1.15,2013-02-01 03:40:00,
2013-01-31 22:45:00,41.7,37.2,30.22,WSW,251,0.0,2.0,84,0.00,,,0.04,Wunderground v.1.15,2013-02-01 03:45:00,